This is the latest recevied weather packets stored in our database for station/object KK4WXG. If no packets are shown the sender has not sent any weather packets the latest 1 day(s).
| Time | Temp. | Humidity | Pressure | Rain* | Wind** | Luminosity | Snow |
|---|---|---|---|---|---|---|---|
| 1777997323 | 25.56° C | 38% | 1011 hPa | 0 mm | 6.71 m/s, 196° | 958 W/m² | - |
| 1777997021 | 26.11° C | 39% | 1010.8 hPa | 0 mm | 3.13 m/s, 229° | 950 W/m² | - |
| 1777996717 | 25.56° C | 40% | 1011.1 hPa | 0 mm | 3.58 m/s, 201° | 946 W/m² | - |
| 1777996412 | 25.56° C | 39% | 1011.1 hPa | 0 mm | 7.15 m/s, 219° | 939 W/m² | - |
| 1777996110 | 25.56° C | 41% | 1011.3 hPa | 0 mm | 3.13 m/s, 221° | 934 W/m² | - |
| 1777995806 | 25.56° C | 39% | 1011.3 hPa | 0 mm | 4.02 m/s, 224° | 922 W/m² | - |
| 1777995503 | 25.56° C | 41% | 1011.1 hPa | 0 mm | 3.58 m/s, 224° | 917 W/m² | - |
| 1777995200 | 25.56° C | 42% | 1011.1 hPa | 0 mm | 3.13 m/s, 259° | 907 W/m² | - |
| 1777994897 | 25.56° C | 40% | 1011.2 hPa | 0 mm | 6.26 m/s, 217° | 899 W/m² | - |
| 1777994594 | 25.56° C | 41% | 1011 hPa | 0 mm | 3.13 m/s, 199° | 889 W/m² | - |
| 1777994294 | 25.56° C | 43% | 1011.4 hPa | 0 mm | 3.58 m/s, 205° | 877 W/m² | - |
| 1777993990 | 25.56° C | 40% | 1011.3 hPa | 0 mm | 3.13 m/s, 206° | 865 W/m² | - |
| 1777993688 | 25.56° C | 44% | 1010.9 hPa | 0 mm | 4.47 m/s, 222° | 856 W/m² | - |
| 1777993385 | 25° C | 42% | 1011 hPa | 0 mm | 4.02 m/s, 211° | 846 W/m² | - |
| 1777993079 | 25° C | 42% | 1010.9 hPa | 0 mm | 5.81 m/s, 214° | 835 W/m² | - |
| 1777992778 | 25° C | 44% | 1010.8 hPa | 0 mm | 2.68 m/s, 208° | 824 W/m² | - |
| 1777992475 | 25° C | 44% | 1010.7 hPa | 0 mm | 3.58 m/s, 200° | 815 W/m² | - |
| 1777992173 | 24.44° C | 43% | 1010.9 hPa | 0 mm | 5.36 m/s, 195° | 805 W/m² | - |
| 1777991870 | 24.44° C | 46% | 1010.9 hPa | 0 mm | 4.02 m/s, 203° | 788 W/m² | - |
| 1777991567 | 24.44° C | 46% | 1010.8 hPa | 0 mm | 4.92 m/s, 217° | 775 W/m² | - |
| 1777991264 | 24.44° C | 47% | 1010.9 hPa | 0 mm | 3.58 m/s, 197° | 764 W/m² | - |
| 1777990961 | 24.44° C | 44% | 1011.1 hPa | 0 mm | 1.79 m/s, 215° | 750 W/m² | - |
| 1777990659 | 24.44° C | 46% | 1010.9 hPa | 0 mm | 1.79 m/s, 195° | 739 W/m² | - |
| 1777990356 | 23.89° C | 45% | 1010.9 hPa | 0 mm | 3.13 m/s, 255° | 692 W/m² | - |
| 1777990052 | 23.89° C | 45% | 1011.1 hPa | 0 mm | 3.58 m/s, 217° | 709 W/m² | - |
* Rain latest hour (hover to see other rain measurements)
** Current wind speed in m/s (hover to see current wind gust speed)